Time;durP1;ratioP1;P1;durP2;ratioP2;P2;SDS_P1;SDS_P2;PMS_P1;PMS_P2;Temp;Humidity;BMP_temperature;BMP_pressure;BME280_temperature;BME280_humidity;BME280_pressure;Samples;Min_cycle;Max_cycle;Signal;HPM_P1;HPM_P2
2021/06/20 00:04:28;;;;;;;8.75;7.82;;;24.60;63.40;;;;;;10415998;28;20068;-58
2021/06/20 00:09:29;;;;;;;7.95;7.25;;;24.60;63.50;;;;;;10430718;28;20141;-57
2021/06/20 00:14:30;;;;;;;8.23;7.53;;;24.60;63.50;;;;;;10415280;28;20033;-57
2021/06/20 00:19:31;;;;;;;8.40;7.63;;;24.60;63.60;;;;;;10414975;28;20087;-57
2021/06/20 00:24:31;;;;;;;8.60;7.82;;;24.60;63.60;;;;;;10414701;28;20072;-57
2021/06/20 00:29:32;;;;;;;8.90;8.10;;;24.60;63.70;;;;;;10414630;28;20037;-57
2021/06/20 00:34:33;;;;;;;8.90;8.07;;;24.60;63.70;;;;;;10414283;28;20034;-58
2021/06/20 00:39:34;;;;;;;8.52;7.72;;;24.60;63.80;;;;;;10414561;28;20386;-57
2021/06/20 00:44:49;;;;;;;8.45;7.57;;;24.60;63.80;;;;;;10414107;28;20044;-58
2021/06/20 00:49:50;;;;;;;9.02;8.13;;;24.60;63.80;;;;;;10413066;28;20174;-57
2021/06/20 00:54:51;;;;;;;8.57;7.88;;;24.60;63.80;;;;;;10429371;28;20025;-57
2021/06/20 00:59:52;;;;;;;7.95;7.22;;;24.60;63.90;;;;;;10420397;28;20039;-58
2021/06/20 01:04:55;;;;;;;7.53;6.82;;;24.60;63.90;;;;;;10414224;28;20038;-57
2021/06/20 01:09:56;;;;;;;8.50;7.75;;;24.60;64.00;;;;;;10413752;28;20034;-57
2021/06/20 01:14:56;;;;;;;8.32;7.45;;;24.60;64.00;;;;;;10413776;28;20510;-58
2021/06/20 01:19:57;;;;;;;7.85;7.15;;;24.60;63.90;;;;;;10413505;28;20108;-58
2021/06/20 01:25:11;;;;;;;8.18;7.38;;;24.60;64.00;;;;;;10413359;28;20044;-58
2021/06/20 01:30:19;;;;;;;8.80;8.05;;;24.50;64.30;;;;;;10413188;28;20445;-58
2021/06/20 01:35:20;;;;;;;7.87;7.07;;;24.50;64.10;;;;;;10413126;28;20041;-57
2021/06/20 01:40:22;;;;;;;9.00;8.25;;;24.50;64.10;;;;;;10412946;28;20276;-57
2021/06/20 01:45:25;;;;;;;8.13;7.40;;;24.50;64.20;;;;;;10413062;28;20034;-57
2021/06/20 01:50:27;;;;;;;8.90;7.85;;;24.50;64.10;;;;;;10412687;28;20405;-57
2021/06/20 01:55:27;;;;;;;8.75;8.05;;;24.50;64.30;;;;;;10412675;28;20093;-58
2021/06/20 02:00:28;;;;;;;8.50;7.78;;;24.50;64.20;;;;;;10420476;28;20026;-57
2021/06/20 02:05:29;;;;;;;7.95;7.25;;;24.50;64.30;;;;;;10419858;28;20025;-57
2021/06/20 02:10:30;;;;;;;8.73;7.93;;;24.50;64.30;;;;;;10420135;28;20065;-57
2021/06/20 02:15:31;;;;;;;8.77;7.97;;;24.50;64.40;;;;;;10435166;28;20053;-57
2021/06/20 02:20:32;;;;;;;8.45;7.65;;;24.50;64.40;;;;;;10419824;28;20557;-57
2021/06/20 02:25:33;;;;;;;7.03;6.40;;;24.50;64.30;;;;;;10419637;28;20034;-57
2021/06/20 02:30:34;;;;;;;7.78;7.07;;;24.50;64.30;;;;;;10419346;28;20041;-57
2021/06/20 02:35:35;;;;;;;8.10;7.40;;;24.50;64.40;;;;;;10419088;28;20060;-57
2021/06/20 02:40:36;;;;;;;7.82;7.05;;;24.50;64.40;;;;;;10418864;28;20469;-57
2021/06/20 02:45:36;;;;;;;8.60;7.90;;;24.50;64.50;;;;;;10417729;28;20484;-57
2021/06/20 02:50:37;;;;;;;7.95;7.25;;;24.50;64.50;;;;;;10418566;28;20050;-57
2021/06/20 02:55:38;;;;;;;9.20;8.40;;;24.50;64.50;;;;;;10418838;28;20030;-57
2021/06/20 03:00:38;;;;;;;8.13;7.53;;;24.50;64.50;;;;;;10426272;28;20488;-57
2021/06/20 03:05:39;;;;;;;7.97;7.28;;;24.50;64.50;;;;;;10417841;28;20076;-57
2021/06/20 03:10:40;;;;;;;8.05;7.35;;;24.50;64.50;;;;;;10417802;28;20053;-57
2021/06/20 03:15:43;;;;;;;8.85;8.05;;;24.40;64.40;;;;;;10417250;28;20108;-58
2021/06/20 03:20:43;;;;;;;7.93;7.13;;;24.50;64.50;;;;;;10417229;28;20123;-57
2021/06/20 03:25:44;;;;;;;8.60;7.90;;;24.40;64.50;;;;;;10417161;28;20169;-57
2021/06/20 03:30:45;;;;;;;8.35;7.57;;;24.40;64.50;;;;;;10416583;28;20033;-57
2021/06/20 03:35:45;;;;;;;8.30;7.60;;;24.40;64.50;;;;;;10416565;28;20060;-57
2021/06/20 03:40:46;;;;;;;8.20;7.43;;;24.40;64.60;;;;;;10416859;28;20022;-56
2021/06/20 03:45:47;;;;;;;7.85;7.15;;;24.40;64.50;;;;;;10416085;28;20030;-57
2021/06/20 03:50:47;;;;;;;8.38;7.68;;;24.40;64.50;;;;;;10415706;28;20093;-57
2021/06/20 03:55:48;;;;;;;9.02;8.23;;;24.40;64.50;;;;;;10415961;28;20430;-56
2021/06/20 04:00:49;;;;;;;7.40;6.80;;;24.40;64.60;;;;;;10423346;28;20029;-56
2021/06/20 04:05:51;;;;;;;8.93;8.02;;;24.40;64.60;;;;;;10415131;28;20446;-57
2021/06/20 04:10:52;;;;;;;9.15;8.25;;;24.40;64.50;;;;;;10412512;28;20112;-57
2021/06/20 04:15:52;;;;;;;7.97;7.28;;;24.40;64.50;;;;;;10412388;28;20029;-57
2021/06/20 04:20:53;;;;;;;7.88;7.18;;;24.40;64.40;;;;;;10414363;28;20029;-57
2021/06/20 04:25:54;;;;;;;8.50;7.80;;;24.40;64.40;;;;;;10415449;28;20116;-57
2021/06/20 04:30:56;;;;;;;8.55;7.75;;;24.40;64.50;;;;;;10415242;28;20033;-58
2021/06/20 04:35:58;;;;;;;9.18;8.27;;;24.30;64.40;;;;;;10414919;28;20374;-57
2021/06/20 04:41:04;;;;;;;8.15;7.35;;;24.40;64.50;;;;;;10415232;28;20017;-57
2021/06/20 04:46:22;;;;;;;8.48;7.72;;;24.30;64.40;;;;;;10414680;28;20474;-57
2021/06/20 04:51:24;;;;;;;8.27;7.57;;;24.30;64.40;;;;;;10414435;28;20038;-57
2021/06/20 04:56:26;;;;;;;8.02;7.28;;;24.30;64.40;;;;;;10414344;28;20116;-57
2021/06/20 05:01:26;;;;;;;8.52;7.72;;;24.30;64.40;;;;;;10421991;28;20445;-57
2021/06/20 05:06:27;;;;;;;8.20;7.40;;;24.30;64.40;;;;;;10414118;28;20033;-56
2021/06/20 05:11:28;;;;;;;8.63;7.82;;;24.30;64.60;;;;;;10414179;28;20030;-57
2021/06/20 05:16:29;;;;;;;8.63;7.72;;;24.30;64.50;;;;;;10413748;28;20079;-57
2021/06/20 05:21:33;;;;;;;9.85;8.85;;;24.30;64.50;;;;;;10413785;28;20033;-58
2021/06/20 05:26:34;;;;;;;8.00;7.30;;;24.30;64.50;;;;;;10413868;28;20390;-58
2021/06/20 05:31:35;;;;;;;8.88;7.72;;;24.30;64.60;;;;;;10413728;28;20061;-57
2021/06/20 05:36:36;;;;;;;8.50;7.70;;;24.30;64.60;;;;;;10415028;28;20499;-58
2021/06/20 05:41:37;;;;;;;8.80;8.00;;;24.30;64.60;;;;;;10421483;28;20080;-57
2021/06/20 05:46:37;;;;;;;9.43;8.52;;;24.30;64.50;;;;;;10420511;28;20052;-58
2021/06/20 05:51:38;;;;;;;8.38;7.68;;;24.30;64.60;;;;;;10420848;28;20053;-58
2021/06/20 05:56:39;;;;;;;9.88;8.50;;;24.30;64.60;;;;;;10422327;28;20180;-57
2021/06/20 06:01:39;;;;;;;8.70;7.90;;;24.20;64.60;;;;;;10427277;28;20036;-57
2021/06/20 06:06:40;;;;;;;8.27;7.57;;;24.20;64.60;;;;;;10420371;28;20037;-57
2021/06/20 06:11:41;;;;;;;8.95;8.05;;;24.20;64.60;;;;;;10420729;28;20156;-56
2021/06/20 06:16:41;;;;;;;9.05;8.23;;;24.20;64.70;;;;;;10418734;28;20116;-57
2021/06/20 06:21:43;;;;;;;8.98;8.18;;;24.20;64.70;;;;;;10419889;28;20033;-57
2021/06/20 06:26:44;;;;;;;9.65;8.75;;;24.20;64.80;;;;;;10418719;28;20060;-58
2021/06/20 06:31:44;;;;;;;9.80;8.98;;;24.20;64.80;;;;;;10419666;28;20494;-58
2021/06/20 06:36:45;;;;;;;10.55;9.52;;;24.20;64.70;;;;;;10419551;28;20060;-57
2021/06/20 06:41:46;;;;;;;10.65;9.63;;;24.20;64.70;;;;;;10418537;28;20049;-58
2021/06/20 06:46:46;;;;;;;10.68;9.57;;;24.20;64.60;;;;;;10418836;28;20041;-58
2021/06/20 06:51:49;;;;;;;9.65;8.75;;;24.20;64.70;;;;;;10417629;28;20056;-57
2021/06/20 06:56:49;;;;;;;8.98;8.18;;;24.20;64.50;;;;;;10421423;28;20036;-57
2021/06/20 07:01:50;;;;;;;9.13;8.23;;;24.20;64.70;;;;;;10423633;28;20101;-57
2021/06/20 07:06:51;;;;;;;9.38;8.48;;;24.30;64.80;;;;;;10433521;28;20112;-57
2021/06/20 07:11:52;;;;;;;10.55;9.65;;;24.20;64.70;;;;;;10417982;28;20071;-57
2021/06/20 07:16:53;;;;;;;9.63;8.73;;;24.20;64.70;;;;;;10418042;28;20033;-57
2021/06/20 07:21:54;;;;;;;9.15;8.35;;;24.20;64.70;;;;;;10417439;28;20047;-58
2021/06/20 07:26:55;;;;;;;9.43;8.52;;;24.20;64.70;;;;;;10432780;28;20033;-58
2021/06/20 07:31:55;;;;;;;9.77;8.57;;;24.20;64.70;;;;;;10417541;28;20029;-56
2021/06/20 07:36:57;;;;;;;9.23;8.32;;;24.20;64.80;;;;;;10417141;28;20128;-58
2021/06/20 07:41:59;;;;;;;9.88;8.88;;;24.20;64.70;;;;;;10432125;28;20026;-56
2021/06/20 07:47:00;;;;;;;8.35;7.53;;;24.20;64.70;;;;;;10415694;28;20147;-57
2021/06/20 07:52:01;;;;;;;8.82;7.95;;;24.20;64.60;;;;;;10416427;28;20049;-58
2021/06/20 07:57:02;;;;;;;8.20;7.50;;;24.20;64.40;;;;;;10421038;28;20021;-57
2021/06/20 08:02:02;;;;;;;8.43;7.13;;;24.20;64.40;;;;;;10419015;28;20025;-58
2021/06/20 08:07:03;;;;;;;8.45;7.65;;;24.30;64.40;;;;;;10414715;28;20034;-58
2021/06/20 08:12:08;;;;;;;8.18;7.38;;;24.20;64.30;;;;;;10415787;28;20033;-56
2021/06/20 08:17:10;;;;;;;9.38;8.48;;;24.20;64.30;;;;;;10415694;28;20026;-58
2021/06/20 08:22:11;;;;;;;9.30;8.45;;;24.20;64.50;;;;;;10415390;28;20041;-58
2021/06/20 08:27:12;;;;;;;8.45;7.63;;;24.20;64.40;;;;;;10415109;28;20377;-57
2021/06/20 08:32:13;;;;;;;8.48;7.68;;;24.20;64.50;;;;;;10415153;28;20378;-56
2021/06/20 08:37:13;;;;;;;8.18;7.38;;;24.20;64.40;;;;;;10414950;28;20034;-57
2021/06/20 08:42:14;;;;;;;8.15;7.35;;;24.20;64.50;;;;;;10414537;28;20117;-57
2021/06/20 08:47:17;;;;;;;8.55;7.70;;;24.20;64.60;;;;;;10414360;28;20044;-57
2021/06/20 08:52:17;;;;;;;9.85;8.95;;;24.20;64.60;;;;;;10414515;28;20033;-58
2021/06/20 08:57:18;;;;;;;9.07;8.27;;;24.20;64.60;;;;;;10421344;28;20025;-58
2021/06/20 09:02:27;;;;;;;8.75;7.95;;;24.20;64.80;;;;;;10415018;28;20112;-56
2021/06/20 09:07:36;;;;;;;;;;;24.20;64.70;;;;;;10413362;28;20029;-58
2021/06/20 09:12:57;;;;;;;9.43;8.52;;;24.20;64.70;;;;;;10413416;28;20016;-58
2021/06/20 09:18:05;;;;;;;9.23;8.32;;;24.20;64.60;;;;;;10413905;28;20033;-56
2021/06/20 09:23:15;;;;;;;9.57;8.65;;;24.20;64.60;;;;;;10414071;28;20456;-58
2021/06/20 09:28:16;;;;;;;9.80;8.90;;;24.20;64.60;;;;;;10413676;28;20466;-58
2021/06/20 09:33:19;;;;;;;10.30;9.13;;;24.20;64.70;;;;;;10413567;28;20029;-58
2021/06/20 09:38:29;;;;;;;9.52;8.50;;;24.20;64.40;;;;;;10413415;28;20040;-57
2021/06/20 09:43:30;;;;;;;8.77;7.78;;;24.20;64.30;;;;;;10413645;28;20519;-58
2021/06/20 09:48:35;;;;;;;10.07;9.07;;;24.20;64.20;;;;;;10413125;28;20046;-58
2021/06/20 09:53:38;;;;;;;9.50;8.52;;;24.20;64.40;;;;;;10413239;28;20478;-57
2021/06/20 09:58:44;;;;;;;10.88;9.00;;;24.20;64.50;;;;;;10420851;28;20067;-57
2021/06/20 10:03:46;;;;;;;10.98;8.68;;;24.30;64.60;;;;;;10413215;28;20091;-58
2021/06/20 10:08:47;;;;;;;11.07;9.10;;;24.30;64.60;;;;;;10412968;28;20082;-57
2021/06/20 10:13:48;;;;;;;10.73;8.48;;;24.30;64.60;;;;;;10413227;28;20025;-58
2021/06/20 10:18:56;;;;;;;9.82;8.07;;;24.30;64.60;;;;;;10413007;28;20422;-57
2021/06/20 10:24:23;;;;;;;12.73;9.57;;;24.30;64.60;;;;;;10414616;28;20030;-57
2021/06/20 10:29:28;;;;;;;10.27;9.18;;;24.30;64.60;;;;;;10418862;28;20071;-57
2021/06/20 10:34:32;;;;;;;9.18;8.23;;;24.30;64.50;;;;;;10419863;28;20407;-57
2021/06/20 10:39:45;;;;;;;9.30;8.35;;;24.40;65.20;;;;;;10418124;28;20104;-57
2021/06/20 10:44:51;;;;;;;11.00;8.55;;;24.40;64.60;;;;;;10419447;28;20116;-52
2021/06/20 10:49:59;;;;;;;8.52;7.63;;;24.40;64.60;;;;;;10418853;28;20054;-54
2021/06/20 10:55:13;;;;;;;10.27;8.52;;;24.40;64.50;;;;;;10433875;28;20083;-54
2021/06/20 11:00:33;;;;;;;10.40;8.43;;;24.30;64.40;;;;;;10425621;28;20101;-53
2021/06/20 11:05:45;;;;;;;8.30;7.47;;;24.40;64.50;;;;;;10418634;28;20025;-54
2021/06/20 11:10:46;;;;;;;9.80;8.82;;;24.30;64.40;;;;;;10418388;28;20033;-53
2021/06/20 11:15:47;;;;;;;8.98;8.10;;;24.40;64.40;;;;;;10418201;28;20545;-53
2021/06/20 11:20:49;;;;;;;8.77;7.88;;;24.40;64.40;;;;;;10416723;28;20033;-52
2021/06/20 11:25:53;;;;;;;9.13;8.02;;;24.40;64.40;;;;;;10417691;28;20485;-54
2021/06/20 11:31:10;;;;;;;9.07;8.18;;;24.40;64.40;;;;;;10432292;28;20028;-53
2021/06/20 11:36:12;;;;;;;7.95;7.22;;;24.40;64.30;;;;;;10416616;28;20037;-53
2021/06/20 11:41:21;;;;;;;8.93;8.02;;;24.40;64.30;;;;;;10417460;28;20115;-53
2021/06/20 11:46:24;;;;;;;9.07;8.25;;;24.40;64.30;;;;;;10417202;28;20148;-53
2021/06/20 11:51:31;;;;;;;8.57;7.63;;;24.40;64.20;;;;;;10416639;28;20045;-51
2021/06/20 11:56:32;;;;;;;8.55;7.65;;;24.40;64.20;;;;;;10416974;28;20041;-52
2021/06/20 12:01:49;;;;;;;9.73;8.10;;;24.40;64.30;;;;;;10435070;28;20069;-53
2021/06/20 12:06:50;;;;;;;8.82;8.00;;;24.40;64.30;;;;;;10416228;28;20037;-52
2021/06/20 12:12:01;;;;;;;8.50;7.68;;;24.50;64.30;;;;;;10414592;28;20029;-52
2021/06/20 12:17:03;;;;;;;7.72;6.93;;;24.50;64.30;;;;;;10415766;28;20451;-51
2021/06/20 12:22:13;;;;;;;7.35;6.65;;;24.50;64.30;;;;;;10415347;28;20032;-52
2021/06/20 12:27:29;;;;;;;8.32;7.47;;;24.50;64.10;;;;;;10415605;28;20679;-53
2021/06/20 12:32:33;;;;;;;8.02;7.22;;;24.60;64.10;;;;;;10415005;28;20068;-53
2021/06/20 12:37:43;;;;;;;8.45;7.63;;;24.60;63.90;;;;;;10415172;28;20039;-52
2021/06/20 12:42:54;;;;;;;8.27;7.43;;;24.60;64.00;;;;;;10415039;28;20024;-53
2021/06/20 12:47:57;;;;;;;7.88;7.07;;;24.60;63.90;;;;;;10413683;28;20053;-53
2021/06/20 12:53:00;;;;;;;6.50;5.88;;;24.60;63.90;;;;;;10401458;28;20065;-54
2021/06/20 12:58:06;;;;;;;6.85;6.15;;;24.60;63.90;;;;;;10422395;28;20028;-52
2021/06/20 13:03:08;;;;;;;6.97;6.28;;;24.60;63.80;;;;;;10414510;28;20028;-52
2021/06/20 13:08:10;;;;;;;6.65;5.95;;;24.60;63.80;;;;;;10414307;28;20056;-50
2021/06/20 13:13:12;;;;;;;8.00;6.88;;;24.60;63.80;;;;;;10414646;28;20087;-52
2021/06/20 13:18:12;;;;;;;6.95;6.25;;;24.60;63.80;;;;;;10413824;28;20036;-53
2021/06/20 13:23:13;;;;;;;7.22;6.53;;;24.60;63.80;;;;;;10413821;28;20083;-52
2021/06/20 13:28:14;;;;;;;7.13;6.10;;;24.60;63.80;;;;;;10414111;28;20044;-53
2021/06/20 13:33:15;;;;;;;7.32;6.60;;;24.50;63.80;;;;;;10413625;28;20086;-52
2021/06/20 13:38:15;;;;;;;6.80;6.10;;;24.60;63.90;;;;;;10413622;28;20034;-50
2021/06/20 13:43:16;;;;;;;6.80;6.18;;;24.60;63.90;;;;;;10413775;28;20053;-51
2021/06/20 13:48:17;;;;;;;7.13;6.43;;;24.60;63.90;;;;;;10413469;28;20136;-52
2021/06/20 13:53:17;;;;;;;6.55;5.95;;;24.70;63.90;;;;;;10413200;28;20052;-50
2021/06/20 13:58:18;;;;;;;7.35;6.65;;;24.70;63.80;;;;;;10423239;28;20104;-51
2021/06/20 14:03:19;;;;;;;6.72;6.03;;;24.70;63.80;;;;;;10419806;28;20113;-52
2021/06/20 14:08:19;;;;;;;6.45;5.80;;;24.70;63.70;;;;;;10420689;28;20107;-52
2021/06/20 14:13:20;;;;;;;6.70;5.95;;;24.70;63.80;;;;;;10420622;28;20032;-51
2021/06/20 14:18:21;;;;;;;6.57;5.97;;;24.70;63.80;;;;;;10420436;28;20127;-52
2021/06/20 14:23:22;;;;;;;6.75;6.07;;;24.70;63.80;;;;;;10420184;28;20060;-54
2021/06/20 14:28:22;;;;;;;6.80;6.10;;;24.60;63.80;;;;;;10419941;28;20029;-53
2021/06/20 14:33:23;;;;;;;6.82;6.22;;;24.60;63.80;;;;;;10419998;28;20175;-50
2021/06/20 14:38:24;;;;;;;6.68;6.03;;;24.60;63.80;;;;;;10419768;28;20045;-53
2021/06/20 14:43:25;;;;;;;6.75;6.13;;;24.60;63.80;;;;;;10419520;28;20026;-54
2021/06/20 14:48:26;;;;;;;6.18;5.57;;;24.60;63.80;;;;;;10419367;28;20053;-49
2021/06/20 14:53:27;;;;;;;6.60;6.00;;;24.60;63.80;;;;;;10419003;28;20022;-53
2021/06/20 14:58:27;;;;;;;7.43;5.63;;;24.60;63.90;;;;;;10425683;28;20033;-53
2021/06/20 15:03:28;;;;;;;6.40;5.80;;;24.60;63.80;;;;;;10418949;28;20429;-54
2021/06/20 15:08:29;;;;;;;6.25;5.65;;;24.60;63.80;;;;;;10417835;28;20115;-52
2021/06/20 15:13:29;;;;;;;6.22;5.63;;;24.60;63.80;;;;;;10417871;28;20462;-54
2021/06/20 15:18:30;;;;;;;6.35;5.75;;;24.60;63.80;;;;;;10417877;28;20057;-54
2021/06/20 15:23:31;;;;;;;7.40;6.30;;;24.60;63.80;;;;;;10417920;28;20105;-53
2021/06/20 15:28:31;;;;;;;5.97;5.45;;;24.60;63.80;;;;;;10404508;28;20072;-51
2021/06/20 15:33:32;;;;;;;6.07;5.47;;;24.60;63.80;;;;;;10417400;28;20025;-54
2021/06/20 15:38:33;;;;;;;6.20;5.57;;;24.60;63.80;;;;;;10417468;28;20061;-52
2021/06/20 15:43:33;;;;;;;6.68;5.97;;;24.60;63.70;;;;;;10417015;28;20100;-54
2021/06/20 15:48:34;;;;;;;6.57;5.88;;;24.60;63.70;;;;;;10416655;28;20187;-52
2021/06/20 15:53:34;;;;;;;6.68;6.00;;;24.60;63.60;;;;;;10416821;28;20104;-52
2021/06/20 15:58:35;;;;;;;6.40;5.80;;;24.60;63.60;;;;;;10424230;28;20064;-52
2021/06/20 16:03:36;;;;;;;6.38;5.78;;;24.70;63.70;;;;;;10416350;28;20083;-53
2021/06/20 16:08:38;;;;;;;6.60;6.00;;;24.70;63.70;;;;;;10416402;28;20385;-53
2021/06/20 16:13:39;;;;;;;5.95;5.32;;;24.70;63.70;;;;;;10414961;28;20474;-53
2021/06/20 16:18:39;;;;;;;6.63;5.93;;;24.70;63.60;;;;;;10415821;28;20033;-52
2021/06/20 16:23:40;;;;;;;6.60;6.00;;;24.70;63.60;;;;;;10415115;28;20115;-54
2021/06/20 16:28:42;;;;;;;6.07;5.53;;;24.70;63.60;;;;;;10415397;28;20433;-53
2021/06/20 16:33:42;;;;;;;6.57;5.97;;;24.60;63.60;;;;;;10415448;28;20389;-54
2021/06/20 16:38:43;;;;;;;6.38;5.47;;;24.70;64.30;;;;;;10430225;28;20117;-51
2021/06/20 16:43:44;;;;;;;7.13;5.90;;;24.60;63.70;;;;;;10415102;28;20022;-52
2021/06/20 16:48:45;;;;;;;5.80;5.20;;;24.60;63.60;;;;;;10414505;28;20401;-53
2021/06/20 16:53:46;;;;;;;6.38;5.78;;;24.60;63.70;;;;;;10414800;28;20113;-55
2021/06/20 16:58:46;;;;;;;5.63;5.13;;;24.60;63.60;;;;;;10422276;28;20117;-53
2021/06/20 17:03:47;;;;;;;5.68;5.07;;;24.70;63.60;;;;;;10414315;28;20111;-54
2021/06/20 17:08:48;;;;;;;6.35;5.70;;;24.70;63.40;;;;;;10414256;28;20030;-53
2021/06/20 17:13:49;;;;;;;5.70;5.20;;;24.70;63.50;;;;;;10414280;28;20473;-54
2021/06/20 17:18:49;;;;;;;5.75;5.25;;;24.70;63.40;;;;;;10413878;28;20038;-53
2021/06/20 17:23:50;;;;;;;6.28;5.68;;;24.60;63.30;;;;;;10413852;28;20091;-52
2021/06/20 17:28:51;;;;;;;6.18;5.57;;;24.70;63.40;;;;;;10414191;28;20100;-54
2021/06/20 17:33:52;;;;;;;6.30;5.70;;;24.70;63.30;;;;;;10417350;28;20021;-53
2021/06/20 17:38:53;;;;;;;5.97;5.20;;;24.70;63.50;;;;;;10422060;28;20033;-54
2021/06/20 17:43:53;;;;;;;6.53;5.93;;;24.70;63.60;;;;;;10421758;28;20064;-53
2021/06/20 17:48:54;;;;;;;6.80;6.10;;;24.70;63.70;;;;;;10421468;28;20106;-51
2021/06/20 17:53:55;;;;;;;5.72;5.22;;;24.70;63.70;;;;;;10421485;28;20427;-52
2021/06/20 17:58:56;;;;;;;5.80;5.20;;;24.70;63.70;;;;;;10429325;28;20032;-52
2021/06/20 18:03:59;;;;;;;5.78;5.28;;;24.70;63.70;;;;;;10421172;28;20022;-54
2021/06/20 18:09:01;;;;;;;5.88;5.38;;;24.70;63.70;;;;;;10420749;28;20033;-54
2021/06/20 18:14:03;;;;;;;6.25;5.65;;;24.60;63.70;;;;;;10420826;28;20032;-53
2021/06/20 18:19:04;;;;;;;5.88;5.30;;;24.60;63.70;;;;;;10420516;28;20100;-52
2021/06/20 18:24:08;;;;;;;5.82;5.22;;;24.70;63.80;;;;;;10420252;28;20018;-54
2021/06/20 18:29:09;;;;;;;6.00;5.40;;;24.60;63.70;;;;;;10420214;28;20112;-52
2021/06/20 18:34:10;;;;;;;5.82;5.32;;;24.70;63.80;;;;;;10419796;28;20515;-54
2021/06/20 18:39:11;;;;;;;6.00;5.38;;;24.70;63.70;;;;;;10420023;28;20481;-52
2021/06/20 18:44:11;;;;;;;5.43;4.93;;;24.60;63.60;;;;;;10419339;28;20087;-51
2021/06/20 18:49:12;;;;;;;5.72;4.72;;;24.70;63.70;;;;;;10419151;28;20512;-54
2021/06/20 18:54:13;;;;;;;5.50;5.00;;;24.60;63.70;;;;;;10418708;28;20405;-53
2021/06/20 18:59:13;;;;;;;5.68;5.18;;;24.60;63.60;;;;;;10426539;28;20108;-52
2021/06/20 19:04:14;;;;;;;7.47;5.47;;;24.60;63.60;;;;;;10418845;28;20053;-53
2021/06/20 19:09:15;;;;;;;6.80;5.65;;;24.60;63.60;;;;;;10418768;28;20068;-54
2021/06/20 19:14:15;;;;;;;5.38;4.88;;;24.70;63.60;;;;;;10418102;28;20072;-54
2021/06/20 19:19:16;;;;;;;5.85;5.32;;;24.60;63.60;;;;;;10418275;28;20131;-55
2021/06/20 19:24:17;;;;;;;5.47;4.97;;;24.60;63.60;;;;;;10416745;28;20392;-53
2021/06/20 19:29:18;;;;;;;5.82;5.32;;;24.70;63.60;;;;;;10417860;28;20819;-53
2021/06/20 19:34:19;;;;;;;5.95;5.30;;;24.60;63.60;;;;;;10417580;28;20037;-54
2021/06/20 19:39:21;;;;;;;5.00;4.50;;;24.60;63.60;;;;;;10417196;28;20490;-53
2021/06/20 19:44:22;;;;;;;5.70;5.20;;;24.60;63.60;;;;;;10415741;28;20049;-54
2021/06/20 19:49:22;;;;;;;5.55;5.05;;;24.60;63.60;;;;;;10416931;28;20076;-53
2021/06/20 19:54:23;;;;;;;5.57;5.07;;;24.60;63.60;;;;;;10416811;28;20033;-53
2021/06/20 19:59:24;;;;;;;5.47;4.75;;;24.60;63.60;;;;;;10424423;28;20516;-52
2021/06/20 20:04:25;;;;;;;5.10;4.45;;;24.60;63.60;;;;;;10416370;28;20108;-54
2021/06/20 20:09:26;;;;;;;5.30;4.80;;;24.60;63.50;;;;;;10416571;28;20105;-54
2021/06/20 20:14:26;;;;;;;4.85;4.45;;;24.60;63.50;;;;;;10415978;28;20470;-53
2021/06/20 20:19:27;;;;;;;4.85;4.35;;;24.60;63.60;;;;;;10416067;28;20026;-53
2021/06/20 20:24:28;;;;;;;5.22;4.82;;;24.60;63.60;;;;;;10415829;28;20112;-54
2021/06/20 20:29:28;;;;;;;5.55;4.97;;;24.60;63.50;;;;;;10415471;28;20021;-54
2021/06/20 20:34:29;;;;;;;4.82;4.20;;;24.60;63.50;;;;;;10415323;28;20124;-54
2021/06/20 20:39:30;;;;;;;5.07;4.60;;;24.50;63.50;;;;;;10415314;28;20470;-54
2021/06/20 20:44:30;;;;;;;5.25;4.75;;;24.60;63.50;;;;;;10414898;28;20037;-55
2021/06/20 20:49:32;;;;;;;4.78;4.38;;;24.60;63.60;;;;;;10413233;28;20065;-52
2021/06/20 20:54:32;;;;;;;4.80;4.40;;;24.50;63.50;;;;;;10413976;28;20052;-54
2021/06/20 20:59:33;;;;;;;5.03;4.53;;;24.50;63.40;;;;;;10420564;28;20547;-54
2021/06/20 21:04:34;;;;;;;4.32;3.90;;;24.60;63.50;;;;;;10412772;28;20496;-53
2021/06/20 21:09:34;;;;;;;4.78;4.28;;;24.60;64.10;;;;;;10412754;28;20439;-54
2021/06/20 21:14:36;;;;;;;4.75;4.35;;;24.50;63.40;;;;;;10413534;28;20553;-54
2021/06/20 21:19:37;;;;;;;4.82;4.35;;;24.60;63.40;;;;;;10413527;28;20428;-52
2021/06/20 21:24:37;;;;;;;4.20;3.80;;;24.50;63.40;;;;;;10414277;28;20034;-52
2021/06/20 21:29:38;;;;;;;4.00;3.60;;;24.50;63.50;;;;;;10413939;28;20021;-53
2021/06/20 21:34:39;;;;;;;4.10;3.70;;;24.50;63.40;;;;;;10428414;28;20068;-53
2021/06/20 21:39:40;;;;;;;4.72;4.15;;;24.50;63.40;;;;;;10413191;28;20033;-54
2021/06/20 21:44:40;;;;;;;5.10;4.60;;;24.50;63.30;;;;;;10411964;28;20021;-53
2021/06/20 21:49:41;;;;;;;4.35;3.95;;;24.50;63.20;;;;;;10411937;28;20048;-50
2021/06/20 21:54:42;;;;;;;5.05;4.05;;;24.50;63.20;;;;;;10411498;28;20474;-53
2021/06/20 21:59:42;;;;;;;4.55;4.13;;;24.50;63.20;;;;;;10420911;28;20535;-53
2021/06/20 22:04:43;;;;;;;4.22;3.83;;;24.50;63.30;;;;;;10412750;28;20109;-52
2021/06/20 22:09:46;;;;;;;4.63;4.20;;;24.50;63.20;;;;;;10413215;28;20051;-52
2021/06/20 22:14:48;;;;;;;4.18;3.72;;;24.50;63.20;;;;;;10412422;28;20037;-53
2021/06/20 22:19:48;;;;;;;4.80;4.07;;;24.50;63.30;;;;;;10415552;28;20025;-52
2021/06/20 22:24:50;;;;;;;4.22;3.75;;;24.50;63.20;;;;;;10420278;28;20481;-52
2021/06/20 22:29:51;;;;;;;4.43;3.75;;;24.50;63.20;;;;;;10419731;28;20033;-53
2021/06/20 22:34:53;;;;;;;4.55;4.00;;;24.50;63.20;;;;;;10419546;28;20378;-54
2021/06/20 22:39:53;;;;;;;4.60;3.88;;;24.50;63.20;;;;;;10419174;28;20105;-54
2021/06/20 22:44:54;;;;;;;4.10;3.70;;;24.50;63.20;;;;;;10419153;28;20545;-53
2021/06/20 22:49:55;;;;;;;4.32;3.92;;;24.50;63.20;;;;;;10418654;28;20038;-54
2021/06/20 22:54:56;;;;;;;4.20;3.80;;;24.50;63.20;;;;;;10418664;28;20127;-53
2021/06/20 22:59:57;;;;;;;4.00;3.58;;;24.50;63.10;;;;;;10426472;28;20028;-53
2021/06/20 23:04:57;;;;;;;5.03;3.25;;;24.50;63.70;;;;;;10418948;28;20035;-52
2021/06/20 23:09:58;;;;;;;3.78;3.38;;;24.50;63.20;;;;;;10418262;28;20116;-54
2021/06/20 23:14:59;;;;;;;3.83;3.47;;;24.40;63.10;;;;;;10418310;28;20076;-52
2021/06/20 23:19:59;;;;;;;3.78;3.45;;;24.50;63.30;;;;;;10416512;28;20275;-54
2021/06/20 23:25:00;;;;;;;3.50;3.20;;;24.50;63.20;;;;;;10417598;28;20409;-53
2021/06/20 23:30:03;;;;;;;3.78;3.22;;;24.40;63.10;;;;;;10416910;28;20544;-52
2021/06/20 23:35:06;;;;;;;4.15;3.72;;;24.40;63.10;;;;;;10417327;28;20041;-53
2021/06/20 23:40:07;;;;;;;3.80;3.40;;;24.40;63.10;;;;;;10416953;28;20033;-54
2021/06/20 23:45:11;;;;;;;4.93;3.53;;;24.40;63.10;;;;;;10416772;28;20033;-53
2021/06/20 23:50:14;;;;;;;3.97;3.58;;;24.40;63.00;;;;;;10414999;28;20054;-54
2021/06/20 23:55:15;;;;;;;4.43;3.38;;;24.40;63.00;;;;;;10416185;28;20209;-53
